createdAt,value
2022-10-12T00:04:59.238Z,9.02
2022-10-12T00:11:21.931Z,9.40
2022-10-12T00:17:28.431Z,8.13
2022-10-12T00:23:38.936Z,9.20
2022-10-12T00:29:43.932Z,8.75
2022-10-12T00:35:52.511Z,9.50
2022-10-12T00:41:59.049Z,9.15
2022-10-12T00:48:04.663Z,9.05
2022-10-12T00:54:12.779Z,9.73
2022-10-12T01:00:21.088Z,10.10
2022-10-12T01:06:24.751Z,9.57
2022-10-12T01:12:28.734Z,9.02
2022-10-12T01:18:36.329Z,9.35
2022-10-12T01:24:52.955Z,8.93
2022-10-12T01:31:01.283Z,9.63
2022-10-12T01:37:23.465Z,9.77
2022-10-12T01:43:34.895Z,9.95
2022-10-12T01:49:39.833Z,9.55
2022-10-12T01:56:00.160Z,9.40
2022-10-12T02:02:33.128Z,9.50
2022-10-12T02:09:05.098Z,8.80
2022-10-12T02:15:10.267Z,9.13
2022-10-12T02:21:14.711Z,8.98
2022-10-12T02:27:32.997Z,8.93
2022-10-12T02:33:39.834Z,9.63
2022-10-12T02:39:45.550Z,8.73
2022-10-12T02:45:50.446Z,8.80
2022-10-12T02:51:53.825Z,8.70
2022-10-12T02:57:57.189Z,8.43
2022-10-12T03:04:02.079Z,8.93
2022-10-12T03:10:05.913Z,8.10
2022-10-12T03:16:10.542Z,7.35
2022-10-12T03:22:25.624Z,9.13
2022-10-12T03:28:45.444Z,9.52
2022-10-12T03:34:57.760Z,8.70
2022-10-12T03:41:06.534Z,8.60
2022-10-12T03:47:10.310Z,8.57
2022-10-12T03:53:13.851Z,8.90
2022-10-12T03:59:43.265Z,9.85
2022-10-12T04:06:01.338Z,8.70
2022-10-12T04:12:08.590Z,9.07
2022-10-12T04:18:13.350Z,9.07
2022-10-12T04:24:40.726Z,9.02
2022-10-12T04:31:03.836Z,8.73
2022-10-12T04:37:09.035Z,9.07
2022-10-12T04:43:12.416Z,8.68
2022-10-12T04:49:17.206Z,8.70
2022-10-12T04:55:23.083Z,7.78
2022-10-12T05:01:27.901Z,7.85
2022-10-12T05:07:32.342Z,8.43
2022-10-12T05:13:40.416Z,8.27
2022-10-12T05:19:47.463Z,8.05
2022-10-12T05:26:00.903Z,8.23
2022-10-12T05:32:12.609Z,8.30
2022-10-12T05:38:18.968Z,7.18
2022-10-12T05:44:25.106Z,6.53
2022-10-12T05:50:31.073Z,7.72
2022-10-12T05:56:40.584Z,8.35
2022-10-12T06:02:47.557Z,9.40
2022-10-12T06:08:55.919Z,10.50
2022-10-12T06:15:01.553Z,9.93
2022-10-12T06:21:31.855Z,12.23
2022-10-12T06:27:32.902Z,11.60
2022-10-12T06:33:38.330Z,10.85
2022-10-12T06:39:53.961Z,14.00
2022-10-12T06:46:02.677Z,18.42
2022-10-12T06:52:07.337Z,15.85
2022-10-12T06:58:13.293Z,19.70
2022-10-12T07:04:22.257Z,14.95
2022-10-12T07:10:28.436Z,16.35
2022-10-12T07:16:34.637Z,16.50
2022-10-12T07:22:42.334Z,15.27
2022-10-12T07:28:45.870Z,16.60
2022-10-12T07:34:51.583Z,23.15
2022-10-12T07:40:58.549Z,32.28
2022-10-12T07:47:03.192Z,25.63
2022-10-12T07:53:07.504Z,22.55
2022-10-12T07:59:13.119Z,20.85
2022-10-12T08:05:17.747Z,20.58
2022-10-12T08:11:23.357Z,17.92
2022-10-12T08:17:29.995Z,20.02
2022-10-12T08:23:33.465Z,19.35
2022-10-12T08:29:36.950Z,18.83
2022-10-12T08:35:42.629Z,19.55
2022-10-12T08:41:51.573Z,20.67
2022-10-12T08:48:01.796Z,21.58
2022-10-12T08:54:08.321Z,19.60
2022-10-12T09:00:18.526Z,19.17
2022-10-12T09:06:26.233Z,18.40
2022-10-12T09:12:42.293Z,18.63
2022-10-12T09:18:48.787Z,18.50
2022-10-12T09:24:54.180Z,18.95
2022-10-12T09:31:07.036Z,19.48
2022-10-12T09:37:15.155Z,20.95
2022-10-12T09:43:21.660Z,20.35
2022-10-12T09:49:34.237Z,17.95
2022-10-12T09:55:39.039Z,18.65
2022-10-12T10:01:43.761Z,18.50
2022-10-12T10:07:50.575Z,15.60
2022-10-12T10:14:01.200Z,14.23
2022-10-12T10:20:06.472Z,13.02
2022-10-12T10:26:23.199Z,16.58
2022-10-12T10:32:30.810Z,10.07
2022-10-12T10:39:03.131Z,13.43
2022-10-12T10:45:24.139Z,13.30
2022-10-12T10:51:43.218Z,13.73
2022-10-12T10:57:50.810Z,11.98
2022-10-12T11:03:59.469Z,8.80
2022-10-12T11:10:20.225Z,9.20
2022-10-12T11:16:29.128Z,10.70
2022-10-12T11:22:39.945Z,6.20
2022-10-12T11:28:45.233Z,8.02
2022-10-12T11:34:52.343Z,6.55
2022-10-12T11:41:19.174Z,8.63
2022-10-12T11:47:33.178Z,10.35
2022-10-12T11:53:44.390Z,9.10
2022-10-12T11:59:53.851Z,7.20
2022-10-12T12:05:58.298Z,7.60
2022-10-12T12:12:13.440Z,5.50
2022-10-12T12:18:19.751Z,4.80
2022-10-12T12:24:25.750Z,4.50
2022-10-12T12:30:39.547Z,4.65
2022-10-12T12:36:51.172Z,4.07
2022-10-12T12:43:13.478Z,3.67
2022-10-12T12:50:10.603Z,4.03
2022-10-12T12:56:47.962Z,3.83
2022-10-12T13:03:31.187Z,3.28
2022-10-12T13:10:06.777Z,3.92
2022-10-12T13:17:23.494Z,3.45
2022-10-12T13:22:55.442Z,3.03
2022-10-12T13:28:59.229Z,3.58
2022-10-12T13:35:07.236Z,2.67
2022-10-12T13:41:13.406Z,3.70
2022-10-12T13:47:24.232Z,3.92
2022-10-12T13:53:28.168Z,3.40
2022-10-12T13:59:35.285Z,3.42
2022-10-12T14:05:44.691Z,3.97
2022-10-12T14:11:48.667Z,4.30
2022-10-12T14:17:54.988Z,4.10
2022-10-12T14:23:59.801Z,4.20
2022-10-12T14:30:06.706Z,4.35
2022-10-12T14:36:15.876Z,4.35
2022-10-12T14:42:23.962Z,4.40
2022-10-12T14:48:27.404Z,5.75
2022-10-12T14:54:32.192Z,6.57
2022-10-12T15:00:36.544Z,6.05
2022-10-12T15:06:40.143Z,6.15
2022-10-12T15:12:45.041Z,9.52
2022-10-12T15:18:48.856Z,4.93
2022-10-12T15:24:52.907Z,5.93
2022-10-12T15:31:16.353Z,5.85
2022-10-12T15:37:20.208Z,5.95
2022-10-12T15:43:23.590Z,6.03
2022-10-12T15:49:28.701Z,5.80
2022-10-12T15:55:32.515Z,5.40
2022-10-12T16:01:36.539Z,6.63
2022-10-12T16:07:41.715Z,6.13
2022-10-12T16:13:51.040Z,6.43
2022-10-12T16:19:57.450Z,5.75
2022-10-12T16:26:04.042Z,7.10
2022-10-12T16:32:07.392Z,16.33
2022-10-12T16:38:10.841Z,17.55
2022-10-12T16:44:15.559Z,8.50
2022-10-12T16:50:19.455Z,9.30
2022-10-12T16:56:22.834Z,8.65
2022-10-12T17:02:28.406Z,7.60
2022-10-12T17:08:34.856Z,7.75
2022-10-12T17:14:38.454Z,8.02
2022-10-12T17:20:43.299Z,14.73
2022-10-12T17:26:47.073Z,14.60
2022-10-12T17:32:50.516Z,12.45
2022-10-12T17:38:55.648Z,9.32
2022-10-12T17:45:26.873Z,9.30
2022-10-12T17:51:30.294Z,10.95
2022-10-12T17:57:35.290Z,21.85
2022-10-12T18:03:40.070Z,14.05
2022-10-12T18:09:43.488Z,15.52
2022-10-12T18:15:48.381Z,12.52
2022-10-12T18:21:51.932Z,13.13
2022-10-12T18:27:55.409Z,22.25
2022-10-12T18:34:00.530Z,8.85
2022-10-12T18:40:04.389Z,8.18
2022-10-12T18:46:08.154Z,8.95
2022-10-12T18:52:12.898Z,6.28
2022-10-12T18:58:16.298Z,14.88
2022-10-12T19:04:22.101Z,9.95
2022-10-12T19:10:28.465Z,8.45
2022-10-12T19:16:54.950Z,8.73
2022-10-12T19:23:04.604Z,8.45
2022-10-12T19:29:19.540Z,9.20
2022-10-12T19:35:32.173Z,9.60
2022-10-12T19:41:46.370Z,10.63
2022-10-12T19:48:04.164Z,9.57
2022-10-12T19:54:15.973Z,12.07
2022-10-12T20:00:39.375Z,12.45
2022-10-12T20:07:01.350Z,12.27
2022-10-12T20:13:09.829Z,11.82
2022-10-12T20:19:17.100Z,11.20
2022-10-12T20:25:34.026Z,9.07
2022-10-12T20:31:39.728Z,9.73
2022-10-12T20:38:20.963Z,10.43
2022-10-12T20:51:31.074Z,7.90
2022-10-12T20:57:34.485Z,8.98
2022-10-12T21:03:39.367Z,7.07
2022-10-12T21:09:42.876Z,6.13
2022-10-12T21:15:51.489Z,9.02
2022-10-12T21:21:56.306Z,8.55
2022-10-12T21:27:59.817Z,9.25
2022-10-12T21:34:04.150Z,8.40
2022-10-12T21:40:10.139Z,8.73
2022-10-12T21:46:14.781Z,8.25
2022-10-12T21:52:18.458Z,8.68
2022-10-12T21:58:23.355Z,8.27
2022-10-12T22:04:27.591Z,8.73
2022-10-12T22:10:30.968Z,8.48
2022-10-12T22:16:36.746Z,8.52
2022-10-12T22:22:40.272Z,8.23
2022-10-12T22:28:43.822Z,7.90
2022-10-12T22:34:48.677Z,8.18
2022-10-12T22:40:55.847Z,7.82
2022-10-12T22:46:59.262Z,6.25
2022-10-12T22:53:03.982Z,6.30
2022-10-12T22:59:07.766Z,7.78
2022-10-12T23:05:11.315Z,7.63
2022-10-12T23:11:16.941Z,5.80
2022-10-12T23:17:20.312Z,7.53
2022-10-12T23:23:23.907Z,6.28
2022-10-12T23:29:38.967Z,6.57
2022-10-12T23:35:42.467Z,5.22
2022-10-12T23:41:46.090Z,4.78
2022-10-12T23:48:01.733Z,6.78
2022-10-12T23:54:11.613Z,6.25
